createdAt,value
2022-10-21T00:01:44.856Z,95312.31
2022-10-21T00:04:13.691Z,95305.44
2022-10-21T00:06:42.054Z,95285.91
2022-10-21T00:09:10.679Z,95323.94
2022-10-21T00:11:39.139Z,95304.19
2022-10-21T00:14:07.652Z,95276.31
2022-10-21T00:16:38.195Z,95309.00
2022-10-21T00:19:06.507Z,95296.81
2022-10-21T00:21:36.977Z,95297.00
2022-10-21T00:24:05.843Z,95292.41
2022-10-21T00:26:37.655Z,95303.56
2022-10-21T00:29:07.406Z,95272.94
2022-10-21T00:31:37.271Z,95289.84
2022-10-21T00:34:05.675Z,95282.03
2022-10-21T00:36:34.221Z,95200.50
2022-10-21T00:39:02.580Z,95282.22
2022-10-21T00:41:31.092Z,95298.63
2022-10-21T00:44:02.300Z,95315.44
2022-10-21T00:46:45.056Z,95285.75
2022-10-21T00:49:19.820Z,95313.44
2022-10-21T00:51:51.463Z,95325.78
2022-10-21T00:54:22.080Z,95323.44
2022-10-21T00:56:52.737Z,95216.94
2022-10-21T00:59:22.123Z,95323.06
2022-10-21T01:01:52.361Z,95309.22
2022-10-21T01:04:20.682Z,95297.97
2022-10-21T01:06:49.468Z,95325.84
2022-10-21T01:09:18.997Z,95318.63
2022-10-21T01:11:49.532Z,95228.03
2022-10-21T01:14:44.627Z,95304.53
2022-10-21T01:17:43.669Z,95317.09
2022-10-21T01:20:47.600Z,95317.97
2022-10-21T01:23:32.074Z,95320.75
2022-10-21T01:26:33.656Z,95314.41
2022-10-21T01:29:27.356Z,95302.59
2022-10-21T01:32:04.231Z,95310.25
2022-10-21T01:34:42.055Z,95307.63
2022-10-21T01:37:18.209Z,95291.84
2022-10-21T01:39:53.087Z,95279.63
2022-10-21T01:42:29.707Z,95280.31
2022-10-21T01:45:04.855Z,95253.28
2022-10-21T01:47:38.642Z,95251.75
2022-10-21T01:50:10.592Z,95248.34
2022-10-21T01:52:40.098Z,95205.19
2022-10-21T01:55:13.664Z,95244.19
2022-10-21T01:57:47.772Z,95241.97
2022-10-21T02:00:16.252Z,95232.19
2022-10-21T02:02:48.935Z,95223.56
2022-10-21T02:05:23.491Z,95223.28
2022-10-21T02:07:52.256Z,95222.16
2022-10-21T02:10:21.538Z,95223.19
2022-10-21T02:12:52.074Z,95238.59
2022-10-21T02:15:23.228Z,95236.75
2022-10-21T02:20:46.272Z,95235.97
2022-10-21T02:23:18.871Z,95230.75
2022-10-21T02:25:50.219Z,95238.91
2022-10-21T02:28:19.459Z,95197.44
2022-10-21T02:30:59.530Z,95217.09
2022-10-21T02:33:43.042Z,95209.88
2022-10-21T02:36:15.801Z,95215.88
2022-10-21T02:38:49.599Z,95215.25
2022-10-21T02:41:20.262Z,95205.63
2022-10-21T02:43:52.338Z,95200.91
2022-10-21T02:46:20.924Z,95207.59
2022-10-21T02:48:50.822Z,95230.94
2022-10-21T02:51:19.299Z,95200.69
2022-10-21T02:53:47.671Z,95193.22
2022-10-21T02:56:16.118Z,95189.59
2022-10-21T02:58:44.527Z,95156.00
2022-10-21T03:01:13.185Z,95107.69
2022-10-21T03:03:41.684Z,95185.81
2022-10-21T03:06:11.532Z,95178.78
2022-10-21T03:08:40.110Z,95180.56
2022-10-21T03:11:08.460Z,95192.72
2022-10-21T03:13:36.907Z,95202.75
2022-10-21T03:16:05.661Z,95169.19
2022-10-21T03:18:33.987Z,95197.84
2022-10-21T03:21:02.313Z,95196.84
2022-10-21T03:23:32.231Z,95194.81
2022-10-21T03:26:00.587Z,95191.31
2022-10-21T03:28:30.589Z,95164.34
2022-10-21T03:30:59.134Z,95183.38
2022-10-21T03:33:27.458Z,95171.38
2022-10-21T03:35:55.852Z,95173.53
2022-10-21T03:38:24.359Z,95153.50
2022-10-21T03:40:54.342Z,95170.44
2022-10-21T03:43:22.703Z,95184.53
2022-10-21T03:45:51.156Z,95192.31
2022-10-21T03:48:20.053Z,95189.34
2022-10-21T03:50:48.434Z,95175.53
2022-10-21T03:53:30.805Z,95175.16
2022-10-21T03:56:07.566Z,95165.53
2022-10-21T03:58:35.962Z,95163.91
2022-10-21T04:01:04.678Z,95166.72
2022-10-21T04:03:33.042Z,95168.06
2022-10-21T04:06:01.459Z,95164.13
2022-10-21T04:08:29.861Z,95170.13
2022-10-21T04:10:59.049Z,95156.44
2022-10-21T04:13:28.887Z,95095.03
2022-10-21T04:16:00.204Z,95152.78
2022-10-21T04:18:29.023Z,95137.97
2022-10-21T04:20:57.616Z,95152.78
2022-10-21T04:23:26.013Z,95145.75
2022-10-21T04:25:54.301Z,95153.91
2022-10-21T04:28:22.782Z,95150.63
2022-10-21T04:30:52.708Z,95139.22
2022-10-21T04:33:21.147Z,95134.94
2022-10-21T04:35:49.944Z,95131.31
2022-10-21T04:38:18.496Z,95072.50
2022-10-21T04:40:46.963Z,95142.97
2022-10-21T04:43:15.333Z,95107.59
2022-10-21T04:45:43.737Z,95149.47
2022-10-21T04:48:14.092Z,95141.38
2022-10-21T04:50:42.758Z,95148.38
2022-10-21T04:53:11.165Z,95109.63
2022-10-21T04:55:40.951Z,95108.22
2022-10-21T04:58:09.444Z,95127.28
2022-10-21T05:00:37.928Z,95101.75
2022-10-21T05:03:06.239Z,95029.34
2022-10-21T05:05:36.079Z,95135.53
2022-10-21T05:08:07.013Z,95122.91
2022-10-21T05:10:39.099Z,95113.69
2022-10-21T05:13:07.549Z,95101.28
2022-10-21T05:15:36.031Z,95091.78
2022-10-21T05:18:04.629Z,95054.03
2022-10-21T05:20:32.987Z,95089.06
2022-10-21T05:23:04.027Z,95054.03
2022-10-21T05:25:34.328Z,95033.78
2022-10-21T05:28:03.089Z,95078.22
2022-10-21T05:30:31.539Z,95074.38
2022-10-21T05:33:00.143Z,95078.66
2022-10-21T05:35:28.587Z,95069.25
2022-10-21T05:37:56.907Z,95063.91
2022-10-21T05:40:26.798Z,95068.41
2022-10-21T05:42:55.258Z,95063.81
2022-10-21T05:45:23.712Z,95063.69
2022-10-21T05:47:52.111Z,95059.81
2022-10-21T05:50:20.704Z,95013.03
2022-10-21T05:52:49.026Z,95065.25
2022-10-21T05:55:17.579Z,95074.00
2022-10-21T05:57:47.392Z,95047.25
2022-10-21T06:00:16.126Z,95094.84
2022-10-21T06:02:44.551Z,95081.81
2022-10-21T06:05:13.396Z,95060.00
2022-10-21T06:07:41.880Z,95077.66
2022-10-21T06:10:12.742Z,95067.25
2022-10-21T06:12:41.311Z,95068.38
2022-10-21T06:15:12.035Z,95064.56
2022-10-21T06:17:41.027Z,95060.78
2022-10-21T06:20:10.258Z,95059.56
2022-10-21T06:22:38.648Z,95071.06
2022-10-21T06:25:07.351Z,95069.19
2022-10-21T06:27:36.034Z,95080.69
2022-10-21T06:30:04.849Z,95083.28
2022-10-21T06:32:36.195Z,95088.19
2022-10-21T06:35:04.766Z,95067.78
2022-10-21T06:37:33.243Z,95077.78
2022-10-21T06:40:01.650Z,95090.69
2022-10-21T06:42:30.016Z,95108.03
2022-10-21T06:45:00.252Z,95075.69
2022-10-21T06:47:29.073Z,95112.56
2022-10-21T06:50:03.132Z,95015.69
2022-10-21T06:52:32.311Z,95108.28
2022-10-21T06:55:00.654Z,95114.19
2022-10-21T06:57:29.097Z,95113.81
2022-10-21T06:59:57.515Z,95112.88
2022-10-21T07:02:25.992Z,95109.97
2022-10-21T07:04:54.299Z,95125.31
2022-10-21T07:07:24.184Z,95113.50
2022-10-21T07:09:52.641Z,95128.88
2022-10-21T07:12:21.139Z,95133.91
2022-10-21T07:14:50.186Z,95121.97
2022-10-21T07:17:18.753Z,95145.09
2022-10-21T07:19:47.114Z,95141.53
2022-10-21T07:22:15.637Z,95137.00
2022-10-21T07:24:45.647Z,95085.38
2022-10-21T07:27:13.971Z,95119.47
2022-10-21T07:29:42.563Z,95116.31
2022-10-21T07:32:11.063Z,95139.13
2022-10-21T07:34:39.442Z,95128.75
2022-10-21T07:37:07.791Z,95139.75
2022-10-21T07:39:36.324Z,95147.97
2022-10-21T07:42:06.163Z,95146.41
2022-10-21T07:44:34.492Z,95097.72
2022-10-21T07:47:02.971Z,95150.28
2022-10-21T07:49:31.475Z,95155.41
2022-10-21T07:51:59.859Z,95148.59
2022-10-21T07:54:28.355Z,95147.50
2022-10-21T07:56:56.884Z,95124.56
2022-10-21T07:59:26.744Z,95092.50
2022-10-21T08:01:55.111Z,95143.19
2022-10-21T08:04:29.973Z,95156.00
2022-10-21T08:06:58.959Z,95140.75
2022-10-21T08:10:37.224Z,95143.22
2022-10-21T08:13:05.707Z,95127.53
2022-10-21T08:15:35.603Z,95139.91
2022-10-21T08:18:03.975Z,95130.16
2022-10-21T08:20:32.342Z,95132.97
2022-10-21T08:23:00.732Z,95115.13
2022-10-21T08:25:30.270Z,95132.06
2022-10-21T08:27:58.620Z,95136.28
2022-10-21T08:30:30.006Z,95131.78
2022-10-21T08:33:00.981Z,95136.59
2022-10-21T08:35:30.322Z,95131.34
2022-10-21T08:37:58.932Z,95127.13
2022-10-21T08:40:31.436Z,95130.03
2022-10-21T08:43:09.375Z,95019.22
2022-10-21T08:45:43.839Z,95114.09
2022-10-21T08:48:18.251Z,95131.94
2022-10-21T08:50:50.104Z,95128.16
2022-10-21T08:53:23.916Z,95134.25
2022-10-21T08:55:58.973Z,95134.06
2022-10-21T08:58:27.708Z,95131.88
2022-10-21T09:01:00.283Z,95129.03
2022-10-21T09:03:40.024Z,95142.22
2022-10-21T09:06:22.837Z,95129.91
2022-10-21T09:09:14.775Z,95142.59
2022-10-21T09:11:59.647Z,95133.38
2022-10-21T09:15:08.822Z,95129.31
2022-10-21T09:17:57.472Z,95136.06
2022-10-21T09:20:43.280Z,95132.22
2022-10-21T09:26:15.743Z,95115.63
2022-10-21T09:28:45.032Z,95118.41
2022-10-21T09:31:18.727Z,95101.03
2022-10-21T09:33:50.271Z,95128.56
2022-10-21T09:36:26.107Z,95117.91
2022-10-21T09:39:00.185Z,95127.72
2022-10-21T09:41:34.112Z,95119.88
2022-10-21T09:44:02.576Z,94950.41
2022-10-21T09:46:31.451Z,95088.69
2022-10-21T09:49:29.216Z,95125.44
2022-10-21T09:51:51.006Z,95057.03
2022-10-21T09:54:23.776Z,95119.59
2022-10-21T09:56:58.591Z,95111.19
2022-10-21T09:59:32.709Z,95108.13
2022-10-21T10:02:08.413Z,95024.41
2022-10-21T10:04:37.660Z,95107.56
2022-10-21T10:07:28.011Z,95090.97
2022-10-21T10:09:56.416Z,95064.53
2022-10-21T10:12:26.358Z,95083.00
2022-10-21T10:14:55.815Z,95090.03
2022-10-21T10:17:30.241Z,95102.97
2022-10-21T10:20:25.945Z,95112.13
2022-10-21T10:23:19.377Z,95103.06
2022-10-21T10:25:52.799Z,95081.41
2022-10-21T10:28:26.195Z,95108.66
2022-10-21T10:30:57.520Z,95096.75
2022-10-21T10:33:29.681Z,95060.91
2022-10-21T10:36:00.320Z,95093.72
2022-10-21T10:38:33.126Z,95100.34
2022-10-21T10:41:12.531Z,95104.75
2022-10-21T10:43:47.083Z,95088.03
2022-10-21T10:46:25.771Z,95107.06
2022-10-21T10:48:55.707Z,95123.88
2022-10-21T10:51:30.543Z,95125.13
2022-10-21T10:54:17.876Z,95129.94
2022-10-21T10:56:54.695Z,95139.25
2022-10-21T10:59:32.069Z,95139.25
2022-10-21T11:02:17.819Z,95080.44
2022-10-21T11:05:00.322Z,95145.91
2022-10-21T11:07:34.529Z,95112.28
2022-10-21T11:10:08.717Z,95115.38
2022-10-21T11:12:37.255Z,95155.88
2022-10-21T11:15:08.532Z,95158.59
2022-10-21T11:17:41.308Z,95124.38
2022-10-21T11:20:18.096Z,95150.03
2022-10-21T11:22:55.562Z,95154.56
2022-10-21T11:25:35.066Z,95156.31
2022-10-21T11:28:17.199Z,95141.38
2022-10-21T11:31:01.544Z,95135.31
2022-10-21T11:33:40.259Z,95132.13
2022-10-21T11:36:17.632Z,95133.13
2022-10-21T11:39:04.768Z,95121.69
2022-10-21T11:41:39.371Z,95125.69
2022-10-21T11:44:17.736Z,95122.84
2022-10-21T11:46:57.227Z,95105.22
2022-10-21T11:49:41.755Z,95118.91
2022-10-21T11:52:21.156Z,95116.25
2022-10-21T11:55:12.451Z,95116.72
2022-10-21T11:57:53.491Z,95106.25
2022-10-21T12:00:25.262Z,95111.97
2022-10-21T12:03:17.682Z,95122.09
2022-10-21T12:05:55.662Z,95107.72
2022-10-21T12:08:28.871Z,95125.66
2022-10-21T12:11:01.659Z,95129.78
2022-10-21T12:13:34.678Z,95124.91
2022-10-21T12:16:07.929Z,95123.03
2022-10-21T12:18:43.983Z,95141.59
2022-10-21T12:21:19.173Z,95136.47
2022-10-21T12:23:51.995Z,95124.28
2022-10-21T12:26:25.928Z,95144.13
2022-10-21T12:29:04.163Z,95142.47
2022-10-21T12:31:41.074Z,95148.84
2022-10-21T12:34:12.046Z,95141.25
2022-10-21T12:36:47.232Z,95136.94
2022-10-21T12:39:39.606Z,95091.88
2022-10-21T12:42:14.005Z,95090.41
2022-10-21T12:44:47.311Z,95130.81
2022-10-21T12:47:32.384Z,95084.97
2022-10-21T12:50:26.341Z,95110.53
2022-10-21T12:53:22.162Z,95123.72
2022-10-21T12:55:53.344Z,95119.41
2022-10-21T12:58:32.019Z,95116.69
2022-10-21T13:01:03.573Z,95119.09
2022-10-21T13:03:55.150Z,95102.56
2022-10-21T13:06:57.701Z,95111.94
2022-10-21T13:09:37.806Z,95112.94
2022-10-21T13:12:17.114Z,95102.13
2022-10-21T13:14:47.875Z,95095.59
2022-10-21T13:17:49.754Z,95088.75
2022-10-21T13:20:46.956Z,95081.91
2022-10-21T13:23:34.216Z,95096.69
2022-10-21T13:26:15.820Z,95094.97
2022-10-21T13:28:57.025Z,95093.38
2022-10-21T13:31:25.620Z,95092.56
2022-10-21T13:33:56.830Z,95074.81
2022-10-21T13:39:21.726Z,95092.47
2022-10-21T13:41:59.199Z,95104.78
2022-10-21T13:44:32.344Z,95112.94
2022-10-21T13:47:18.721Z,95114.16
2022-10-21T13:49:53.388Z,95120.81
2022-10-21T13:52:21.788Z,95041.59
2022-10-21T13:54:59.334Z,95126.25
2022-10-21T13:57:31.038Z,95119.78
2022-10-21T14:00:03.398Z,95102.56
2022-10-21T14:02:31.815Z,95131.03
2022-10-21T14:05:01.961Z,95125.75
2022-10-21T14:07:30.612Z,95129.06
2022-10-21T14:10:00.098Z,95138.38
2022-10-21T14:12:33.367Z,95133.09
2022-10-21T14:15:07.959Z,95100.25
2022-10-21T14:17:41.091Z,95140.88
2022-10-21T14:20:17.616Z,95139.91
2022-10-21T14:22:51.426Z,95143.31
2022-10-21T14:25:20.590Z,95145.53
2022-10-21T14:27:49.603Z,95144.13
2022-10-21T14:30:21.486Z,95132.25
2022-10-21T14:32:51.960Z,95132.38
2022-10-21T14:35:28.051Z,95140.88
2022-10-21T14:37:57.975Z,95139.31
2022-10-21T14:40:32.160Z,95156.09
2022-10-21T14:43:03.313Z,95154.19
2022-10-21T14:45:34.341Z,95110.97
2022-10-21T14:48:10.485Z,95145.06
2022-10-21T14:50:42.696Z,95141.88
2022-10-21T14:53:18.252Z,95099.75
2022-10-21T14:55:49.453Z,95149.00
2022-10-21T14:58:23.936Z,95152.00
2022-10-21T15:00:57.533Z,95156.75
2022-10-21T15:03:39.665Z,95148.34
2022-10-21T15:06:16.488Z,95157.25
2022-10-21T15:08:58.673Z,95156.03
2022-10-21T15:11:42.127Z,95178.13
2022-10-21T15:14:35.383Z,95180.16
2022-10-21T15:17:10.007Z,95169.53
2022-10-21T15:19:48.314Z,95138.72
2022-10-21T15:22:25.748Z,95207.84
2022-10-21T15:24:55.874Z,95201.31
2022-10-21T15:27:29.364Z,95180.00
2022-10-21T15:29:57.934Z,95127.41
2022-10-21T15:32:30.322Z,95186.19
2022-10-21T15:35:00.296Z,95190.38
2022-10-21T15:37:30.311Z,95178.41
2022-10-21T15:39:59.111Z,95184.69
2022-10-21T15:42:27.471Z,95185.78
2022-10-21T15:44:58.732Z,95187.91
2022-10-21T15:47:27.227Z,95184.78
2022-10-21T15:49:56.460Z,95196.63
2022-10-21T15:52:25.087Z,95199.34
2022-10-21T15:54:55.428Z,95204.88
2022-10-21T15:57:24.656Z,95201.97
2022-10-21T15:59:52.975Z,95193.03
2022-10-21T16:02:21.306Z,95199.06
2022-10-21T16:04:53.099Z,95188.66
2022-10-21T16:07:24.211Z,95195.78
2022-10-21T16:09:52.769Z,95181.44
2022-10-21T16:12:23.485Z,95185.25
2022-10-21T16:14:51.919Z,95192.88
2022-10-21T16:17:20.793Z,95125.56
2022-10-21T16:19:49.256Z,95191.56
2022-10-21T16:22:22.411Z,95191.97
2022-10-21T16:24:50.982Z,95201.09
2022-10-21T16:27:31.355Z,95211.72
2022-10-21T16:30:17.598Z,95204.31
2022-10-21T16:32:45.976Z,95204.41
2022-10-21T16:35:15.520Z,95217.63
2022-10-21T16:37:44.686Z,95206.53
2022-10-21T16:40:19.633Z,95205.31
2022-10-21T16:42:48.189Z,95205.72
2022-10-21T16:45:19.405Z,95212.53
2022-10-21T16:47:52.969Z,95216.13
2022-10-21T16:50:24.096Z,95208.72
2022-10-21T16:52:52.951Z,95208.34
2022-10-21T16:55:21.904Z,95214.03
2022-10-21T16:57:50.351Z,95215.84
2022-10-21T17:00:20.555Z,95184.78
2022-10-21T17:02:51.526Z,95217.34
2022-10-21T17:05:20.059Z,95208.81
2022-10-21T17:07:48.790Z,95205.63
2022-10-21T17:10:17.781Z,95170.44
2022-10-21T17:12:46.231Z,95165.63
2022-10-21T17:15:16.972Z,95202.59
2022-10-21T17:17:47.010Z,95024.44
2022-10-21T17:20:15.602Z,95205.03
2022-10-21T17:22:44.131Z,95198.41
2022-10-21T17:25:13.426Z,95200.78
2022-10-21T17:27:42.260Z,95151.00
2022-10-21T17:30:12.641Z,95211.44
2022-10-21T17:35:18.805Z,95229.38
2022-10-21T17:37:48.113Z,95218.56
2022-10-21T17:40:19.222Z,95223.16
2022-10-21T17:42:48.199Z,95218.94
2022-10-21T17:45:17.858Z,95223.56
2022-10-21T17:47:46.769Z,95215.75
2022-10-21T17:50:18.646Z,95193.72
2022-10-21T17:52:47.046Z,95208.75
2022-10-21T17:55:15.479Z,95215.53
2022-10-21T17:57:44.052Z,95209.66
2022-10-21T18:00:14.062Z,95219.28
2022-10-21T18:02:42.822Z,95238.31
2022-10-21T18:05:11.690Z,95240.22
2022-10-21T18:07:41.652Z,95248.34
2022-10-21T18:10:10.811Z,95249.63
2022-10-21T18:12:39.587Z,95211.72
2022-10-21T18:15:09.068Z,95241.81
2022-10-21T18:17:40.081Z,95242.31
2022-10-21T18:20:10.423Z,95235.81
2022-10-21T18:22:40.698Z,95230.41
2022-10-21T18:25:10.062Z,95221.16
2022-10-21T18:27:40.403Z,95220.56
2022-10-21T18:30:09.860Z,95209.59
2022-10-21T18:32:39.240Z,95213.72
2022-10-21T18:35:10.612Z,95181.28
2022-10-21T18:37:41.889Z,95201.50
2022-10-21T18:40:12.009Z,95227.94
2022-10-21T18:42:41.215Z,95218.53
2022-10-21T18:45:10.760Z,95213.31
2022-10-21T18:47:41.212Z,95208.91
2022-10-21T18:50:11.102Z,95212.22
2022-10-21T18:52:41.339Z,95217.63
2022-10-21T18:55:10.840Z,95215.91
2022-10-21T18:57:40.084Z,95222.75
2022-10-21T19:00:10.615Z,95235.88
2022-10-21T19:02:39.281Z,95198.88
2022-10-21T19:05:08.359Z,95223.94
2022-10-21T19:07:38.241Z,95226.03
2022-10-21T19:10:09.504Z,95223.34
2022-10-21T19:12:38.616Z,95228.53
2022-10-21T19:15:08.457Z,95221.94
2022-10-21T19:17:36.981Z,95225.94
2022-10-21T19:20:06.069Z,95231.91
2022-10-21T19:22:34.561Z,95224.50
2022-10-21T19:25:03.099Z,95223.50
2022-10-21T19:27:34.676Z,95203.50
2022-10-21T19:30:03.347Z,95220.03
2022-10-21T19:32:31.753Z,95214.69
2022-10-21T19:35:00.143Z,95215.91
2022-10-21T19:37:29.177Z,95220.63
2022-10-21T19:39:58.253Z,95221.31
2022-10-21T19:42:28.336Z,95223.34
2022-10-21T19:45:00.003Z,95229.13
2022-10-21T19:47:31.402Z,95228.94
2022-10-21T19:50:00.427Z,95224.44
2022-10-21T19:52:29.595Z,95224.91
2022-10-21T19:54:58.146Z,95235.28
2022-10-21T19:57:27.095Z,95240.06
2022-10-21T19:59:56.054Z,95242.38
2022-10-21T20:02:26.538Z,95239.16
2022-10-21T20:04:54.991Z,95248.16
2022-10-21T20:07:23.350Z,95208.31
2022-10-21T20:09:53.354Z,95221.31
2022-10-21T20:12:21.867Z,95233.13
2022-10-21T20:14:50.477Z,95224.72
2022-10-21T20:17:19.045Z,95230.13
2022-10-21T20:19:52.266Z,95209.00
2022-10-21T20:22:20.917Z,95243.16
2022-10-21T20:24:53.097Z,95240.97
2022-10-21T20:27:22.270Z,95198.69
2022-10-21T20:29:51.270Z,95241.94
2022-10-21T20:32:20.475Z,95243.78
2022-10-21T20:34:50.352Z,95242.38
2022-10-21T20:37:19.506Z,95243.50
2022-10-21T20:39:48.275Z,95275.66
2022-10-21T20:42:16.667Z,95288.31
2022-10-21T20:47:14.432Z,95280.09
2022-10-21T20:49:42.816Z,95285.81
2022-10-21T20:52:12.696Z,95285.81
2022-10-21T20:54:41.662Z,95084.72
2022-10-21T20:57:10.112Z,95183.50
2022-10-21T20:59:38.699Z,95276.47
2022-10-21T21:02:08.160Z,95183.25
2022-10-21T21:04:36.781Z,95260.09
2022-10-21T21:07:05.148Z,95250.75
2022-10-21T21:10:01.132Z,95135.28
2022-10-21T21:12:23.724Z,95200.75
2022-10-21T21:14:53.035Z,95243.50
2022-10-21T21:17:22.251Z,95256.16
2022-10-21T21:19:51.631Z,95224.78
2022-10-21T21:22:21.527Z,95249.66
2022-10-21T21:24:52.308Z,95263.81
2022-10-21T21:27:20.872Z,95259.34
2022-10-21T21:29:49.311Z,95261.56
2022-10-21T21:32:19.131Z,95259.88
2022-10-21T21:34:54.531Z,95254.88
2022-10-21T21:37:23.519Z,95233.69
2022-10-21T21:39:54.550Z,95192.81
2022-10-21T21:42:23.278Z,95237.06
2022-10-21T21:44:51.727Z,95234.47
2022-10-21T21:47:20.303Z,95216.94
2022-10-21T21:49:48.935Z,95210.78
2022-10-21T21:52:17.452Z,95202.88
2022-10-21T21:54:45.815Z,95183.78
2022-10-21T21:57:27.187Z,95203.81
2022-10-21T21:59:55.917Z,95204.91
2022-10-21T22:02:24.555Z,95190.25
2022-10-21T22:04:52.815Z,95176.38
2022-10-21T22:07:21.235Z,95180.41
2022-10-21T22:09:49.566Z,95185.94
2022-10-21T22:12:22.954Z,95196.56
2022-10-21T22:14:51.332Z,95196.41
2022-10-21T22:17:19.984Z,95192.91
2022-10-21T22:19:51.684Z,95179.19
2022-10-21T22:22:21.819Z,95219.81
2022-10-21T22:24:50.396Z,95140.88
2022-10-21T22:27:20.484Z,95220.09
2022-10-21T22:29:49.045Z,95192.34
2022-10-21T22:32:18.071Z,95228.72
2022-10-21T22:34:46.959Z,95189.34
2022-10-21T22:37:15.695Z,95208.34
2022-10-21T22:39:44.132Z,95215.19
2022-10-21T22:42:12.567Z,95170.13
2022-10-21T22:44:42.539Z,95150.41
2022-10-21T22:47:10.860Z,95205.16
2022-10-21T22:49:39.386Z,95188.91
2022-10-21T22:52:08.160Z,95200.81
2022-10-21T22:54:49.226Z,95194.59
2022-10-21T22:57:18.191Z,95202.84
2022-10-21T22:59:52.847Z,95196.81
2022-10-21T23:02:21.602Z,95189.53
2022-10-21T23:04:50.276Z,95217.41
2022-10-21T23:07:18.619Z,95222.22
2022-10-21T23:09:47.494Z,95230.31
2022-10-21T23:12:16.132Z,95220.38
2022-10-21T23:14:44.543Z,95219.31
2022-10-21T23:17:14.498Z,95202.09
2022-10-21T23:19:42.927Z,95047.31
2022-10-21T23:22:12.139Z,95190.19
2022-10-21T23:24:40.541Z,95177.53
2022-10-21T23:27:08.978Z,95176.44
2022-10-21T23:29:37.474Z,95195.13
2022-10-21T23:32:06.274Z,95198.00
2022-10-21T23:34:36.085Z,95211.06
2022-10-21T23:37:04.638Z,95206.44
2022-10-21T23:39:33.155Z,95214.75
2022-10-21T23:42:01.572Z,95214.75
2022-10-21T23:44:30.263Z,95157.56
2022-10-21T23:46:58.969Z,95219.84
2022-10-21T23:49:27.802Z,95224.47
2022-10-21T23:51:58.389Z,95204.75
2022-10-21T23:54:26.803Z,95222.28
2022-10-21T23:56:55.280Z,95226.34
2022-10-21T23:59:23.714Z,95229.00
